Terminal Aerodrome Forecast
Issued by NWS

Home | Current Version | Previous Version | Text Only | Print | Product List | Glossary On
Versions: 1 2 3 4 5 6 7 8 9 10 11 12 13 14 15 16
572
FTUS45 KABQ 051129
TAFSAF
TAF
KSAF 051129Z 0512/0612 35007KT P6SM SCT250
     FM051830 26013G23KT P6SM SCT250
     FM060100 32008KT P6SM SCT250
     FM060600 35007KT P6SM SCT250=

USA.gov is the U.S. government's official web portal to all federal, state and local government web resources and services.